createdAt,value
2022-12-13T00:01:23.463Z,-7.93
2022-12-13T00:03:53.159Z,-7.86
2022-12-13T00:06:19.829Z,-7.97
2022-12-13T00:08:46.368Z,-8.08
2022-12-13T00:11:14.522Z,-8.14
2022-12-13T00:13:42.704Z,-7.88
2022-12-13T00:16:17.184Z,-8.02
2022-12-13T00:18:44.268Z,-8.00
2022-12-13T00:21:16.200Z,-7.96
2022-12-13T00:23:42.647Z,-8.21
2022-12-13T00:26:18.154Z,-8.00
2022-12-13T00:28:45.121Z,-8.04
2022-12-13T00:31:51.498Z,-8.28
2022-12-13T00:34:01.003Z,-8.33
2022-12-13T00:36:28.135Z,-8.24
2022-12-13T00:39:00.653Z,-8.31
2022-12-13T00:41:32.846Z,-8.18
2022-12-13T00:44:00.116Z,-8.20
2022-12-13T00:46:29.997Z,-8.23
2022-12-13T00:48:58.492Z,-8.34
2022-12-13T00:51:28.713Z,-8.18
2022-12-13T00:53:58.934Z,-8.27
2022-12-13T00:56:29.240Z,-8.56
2022-12-13T00:58:56.821Z,-8.57
2022-12-13T01:01:26.721Z,-8.50
2022-12-13T01:03:54.478Z,-8.36
2022-12-13T01:06:45.084Z,-8.36
2022-12-13T01:09:18.458Z,-8.61
2022-12-13T01:11:45.775Z,-8.63
2022-12-13T01:14:12.570Z,-8.66
2022-12-13T01:16:39.372Z,-8.53
2022-12-13T01:19:05.947Z,-8.42
2022-12-13T01:21:32.509Z,-8.33
2022-12-13T01:24:05.941Z,-8.42
2022-12-13T01:26:33.508Z,-8.31
2022-12-13T01:29:00.192Z,-8.09
2022-12-13T01:31:26.878Z,-8.28
2022-12-13T01:33:55.795Z,-8.05
2022-12-13T01:36:27.633Z,-8.29
2022-12-13T01:38:59.417Z,-8.27
2022-12-13T01:41:27.673Z,-8.19
2022-12-13T01:43:57.896Z,-8.06
2022-12-13T01:46:24.498Z,-8.06
2022-12-13T01:49:20.274Z,-8.13
2022-12-13T01:51:52.076Z,-8.15
2022-12-13T01:54:24.015Z,-8.21
2022-12-13T01:57:00.784Z,-8.18
2022-12-13T01:59:28.149Z,-8.36
2022-12-13T02:01:54.651Z,-8.55
2022-12-13T02:04:33.825Z,-8.19
2022-12-13T02:07:03.117Z,-8.22
2022-12-13T02:09:29.743Z,-8.29
2022-12-13T02:11:59.077Z,-8.44
2022-12-13T02:14:25.542Z,-8.48
2022-12-13T02:17:15.915Z,-8.52
2022-12-13T02:20:23.834Z,-8.52
2022-12-13T02:23:02.093Z,-8.68
2022-12-13T02:25:49.734Z,-8.72
2022-12-13T02:28:57.606Z,-8.79
2022-12-13T02:31:32.059Z,-8.51
2022-12-13T02:34:21.374Z,-8.55
2022-12-13T02:37:18.079Z,-8.49
2022-12-13T02:39:52.366Z,-8.57
2022-12-13T02:42:40.754Z,-8.48
2022-12-13T02:45:20.501Z,-8.54
2022-12-13T02:47:49.658Z,-8.61
2022-12-13T02:50:20.310Z,-8.57
2022-12-13T02:52:47.110Z,-8.61
2022-12-13T02:55:16.822Z,-8.60
2022-12-13T02:57:45.247Z,-8.62
2022-12-13T03:00:22.633Z,-8.54
2022-12-13T03:03:01.943Z,-8.81
2022-12-13T03:05:59.487Z,-8.64
2022-12-13T03:08:39.333Z,-8.57
2022-12-13T03:11:07.993Z,-8.76
2022-12-13T03:13:52.736Z,-8.53
2022-12-13T03:16:29.067Z,-8.58
2022-12-13T03:19:00.678Z,-8.66
2022-12-13T03:21:28.237Z,-8.79
2022-12-13T03:23:54.834Z,-8.78
2022-12-13T03:26:25.343Z,-8.89
2022-12-13T03:28:54.948Z,-8.77
2022-12-13T03:31:21.630Z,-8.73
2022-12-13T03:33:48.377Z,-8.61
2022-12-13T03:36:16.276Z,-8.70
2022-12-13T03:38:42.964Z,-8.74
2022-12-13T03:41:12.817Z,-8.72
2022-12-13T03:43:40.456Z,-8.79
2022-12-13T03:46:07.958Z,-8.63
2022-12-13T03:48:34.614Z,-8.88
2022-12-13T03:51:01.585Z,-8.98
2022-12-13T03:53:33.459Z,-8.77
2022-12-13T03:56:05.734Z,-8.59
2022-12-13T03:58:36.544Z,-9.03
2022-12-13T04:01:09.029Z,-8.81
2022-12-13T04:03:36.972Z,-8.83
2022-12-13T04:06:04.293Z,-8.91
2022-12-13T04:08:33.912Z,-8.80
2022-12-13T04:11:20.558Z,-8.71
2022-12-13T04:13:47.122Z,-8.64
2022-12-13T04:16:16.183Z,-8.70
2022-12-13T04:18:43.095Z,-8.74
2022-12-13T04:21:09.835Z,-8.59
2022-12-13T04:23:36.524Z,-8.59
2022-12-13T04:26:03.210Z,-8.63
2022-12-13T04:28:29.852Z,-8.47
2022-12-13T04:30:56.438Z,-8.36
2022-12-13T04:33:23.394Z,-8.47
2022-12-13T04:35:50.731Z,-8.72
2022-12-13T04:38:17.423Z,-8.53
2022-12-13T04:40:43.986Z,-8.52
2022-12-13T04:43:10.659Z,-8.34
2022-12-13T04:45:37.760Z,-8.48
2022-12-13T04:48:04.713Z,-8.52
2022-12-13T04:50:31.261Z,-8.56
2022-12-13T04:52:57.909Z,-8.26
2022-12-13T04:55:24.437Z,-8.24
2022-12-13T04:57:53.186Z,-8.12
2022-12-13T05:00:22.078Z,-8.10
2022-12-13T05:02:48.731Z,-8.07
2022-12-13T05:05:15.643Z,-8.32
2022-12-13T05:07:43.085Z,-8.05
2022-12-13T05:10:11.090Z,-8.04
2022-12-13T05:12:40.086Z,-8.07
2022-12-13T05:15:07.411Z,-8.15
2022-12-13T05:17:34.148Z,-8.23
2022-12-13T05:20:03.251Z,-8.40
2022-12-13T05:22:29.801Z,-8.19
2022-12-13T05:24:56.462Z,-8.18
2022-12-13T05:27:26.853Z,-8.13
2022-12-13T05:30:03.699Z,-8.14
2022-12-13T05:32:43.948Z,-8.01
2022-12-13T05:35:23.496Z,-7.88
2022-12-13T05:37:56.770Z,-7.89
2022-12-13T05:40:24.442Z,-7.76
2022-12-13T05:42:51.213Z,-7.64
2022-12-13T05:45:19.047Z,-7.88
2022-12-13T05:47:46.542Z,-7.98
2022-12-13T05:50:15.061Z,-7.90
2022-12-13T05:52:43.636Z,-7.89
2022-12-13T05:55:11.109Z,-7.85
2022-12-13T05:57:38.347Z,-7.94
2022-12-13T06:00:06.896Z,-7.69
2022-12-13T06:02:56.536Z,-7.92
2022-12-13T06:05:27.330Z,-7.81
2022-12-13T06:07:57.395Z,-7.84
2022-12-13T06:10:24.742Z,-7.93
2022-12-13T06:13:01.153Z,-7.59
2022-12-13T06:15:28.101Z,-7.59
2022-12-13T06:18:01.911Z,-7.56
2022-12-13T06:20:28.587Z,-7.80
2022-12-13T06:22:55.125Z,-7.62
2022-12-13T06:25:30.844Z,-7.75
2022-12-13T06:28:01.221Z,-7.61
2022-12-13T06:30:29.991Z,-7.44
2022-12-13T06:32:59.211Z,-7.47
2022-12-13T06:35:28.547Z,-7.48
2022-12-13T06:38:01.309Z,-7.65
2022-12-13T06:40:33.700Z,-7.60
2022-12-13T06:43:00.861Z,-7.59
2022-12-13T06:45:27.406Z,-7.48
2022-12-13T06:47:53.933Z,-7.53
2022-12-13T06:50:20.465Z,-7.37
2022-12-13T06:52:47.308Z,-7.49
2022-12-13T06:55:14.312Z,-7.73
2022-12-13T06:57:41.703Z,-7.60
2022-12-13T07:00:09.782Z,-7.63
2022-12-13T07:02:38.129Z,-7.46
2022-12-13T07:05:05.235Z,-7.42
2022-12-13T07:07:32.336Z,-7.32
2022-12-13T07:09:58.920Z,-7.30
2022-12-13T07:12:25.721Z,-7.52
2022-12-13T07:14:52.314Z,-7.60
2022-12-13T07:17:33.418Z,-7.49
2022-12-13T07:20:01.191Z,-7.58
2022-12-13T07:22:28.139Z,-7.67
2022-12-13T07:24:56.906Z,-7.62
2022-12-13T07:27:23.446Z,-7.52
2022-12-13T07:29:49.993Z,-7.41
2022-12-13T07:32:16.595Z,-7.58
2022-12-13T07:34:43.489Z,-7.64
2022-12-13T07:37:29.273Z,-7.65
2022-12-13T07:40:02.699Z,-7.44
2022-12-13T07:42:30.350Z,-7.47
2022-12-13T07:44:56.881Z,-7.32
2022-12-13T07:47:23.574Z,-7.24
2022-12-13T07:49:52.295Z,-7.35
2022-12-13T07:52:18.858Z,-7.43
2022-12-13T07:54:45.394Z,-7.43
2022-12-13T07:57:11.928Z,-7.36
2022-12-13T07:59:38.464Z,-7.21
2022-12-13T08:02:06.743Z,-7.10
2022-12-13T08:04:37.873Z,-7.12
2022-12-13T08:07:09.038Z,-7.06
2022-12-13T08:09:36.050Z,-6.98
2022-12-13T08:12:02.768Z,-6.99
2022-12-13T08:14:32.064Z,-6.80
2022-12-13T08:16:58.688Z,-6.72
2022-12-13T08:19:25.237Z,-6.85
2022-12-13T08:21:55.543Z,-6.58
2022-12-13T08:24:28.322Z,-6.64
2022-12-13T08:27:09.905Z,-6.62
2022-12-13T08:29:36.519Z,-6.34
2022-12-13T08:32:08.074Z,-6.17
2022-12-13T08:34:34.812Z,-6.12
2022-12-13T08:37:03.574Z,-6.20
2022-12-13T08:39:36.801Z,-6.19
2022-12-13T08:42:15.989Z,-6.29
2022-12-13T08:44:50.053Z,-6.23
2022-12-13T08:47:22.964Z,-6.39
2022-12-13T08:50:02.353Z,-6.38
2022-12-13T08:52:30.288Z,-6.31
2022-12-13T08:54:56.792Z,-6.27
2022-12-13T08:57:23.323Z,-6.26
2022-12-13T08:59:49.886Z,-6.02
2022-12-13T09:02:18.803Z,-6.26
2022-12-13T09:04:45.535Z,-6.13
2022-12-13T09:07:14.580Z,-6.18
2022-12-13T09:09:43.574Z,-6.00
2022-12-13T09:12:10.781Z,-6.09
2022-12-13T09:15:00.946Z,-5.88
2022-12-13T09:17:36.838Z,-5.87
2022-12-13T09:20:10.268Z,-5.73
2022-12-13T09:22:51.354Z,-5.68
2022-12-13T09:25:24.185Z,-5.66
2022-12-13T09:27:50.949Z,-5.58
2022-12-13T09:30:17.403Z,-5.53
2022-12-13T09:32:49.680Z,-5.54
2022-12-13T09:35:16.184Z,-5.46
2022-12-13T09:37:46.052Z,-5.55
2022-12-13T09:40:26.666Z,-5.38
2022-12-13T09:43:12.616Z,-5.61
2022-12-13T09:45:45.718Z,-5.50
2022-12-13T09:48:22.765Z,-5.37
2022-12-13T09:50:57.948Z,-5.17
2022-12-13T09:53:37.604Z,-5.23
2022-12-13T09:56:10.490Z,-5.07
2022-12-13T09:58:38.147Z,-5.19
2022-12-13T10:01:05.472Z,-5.07
2022-12-13T10:03:32.031Z,-5.14
2022-12-13T10:06:13.841Z,-5.02
2022-12-13T10:08:57.879Z,-5.03
2022-12-13T10:11:31.935Z,-4.99
2022-12-13T10:14:20.096Z,-4.93
2022-12-13T10:16:51.061Z,-4.84
2022-12-13T10:19:34.868Z,-4.82
2022-12-13T10:22:04.526Z,-4.83
2022-12-13T10:25:03.631Z,-4.72
2022-12-13T10:27:34.851Z,-4.58
2022-12-13T10:30:15.459Z,-4.65
2022-12-13T10:32:52.874Z,-4.42
2022-12-13T10:35:32.610Z,-4.49
2022-12-13T10:38:08.337Z,-4.50
2022-12-13T10:40:48.332Z,-4.48
2022-12-13T10:43:20.417Z,-4.31
2022-12-13T10:45:59.168Z,-4.24
2022-12-13T10:48:38.456Z,-4.32
2022-12-13T10:51:10.888Z,-4.44
2022-12-13T10:53:47.389Z,-4.19
2022-12-13T10:56:14.760Z,-4.29
2022-12-13T10:59:13.405Z,-4.15
2022-12-13T11:01:43.672Z,-3.98
2022-12-13T11:04:33.752Z,-3.89
2022-12-13T11:07:22.004Z,-3.76
2022-12-13T11:09:52.449Z,-3.83
2022-12-13T11:12:25.732Z,-3.83
2022-12-13T11:15:04.466Z,-3.70
2022-12-13T11:17:47.865Z,-3.73
2022-12-13T11:20:54.799Z,-3.72
2022-12-13T11:23:33.201Z,-3.69
2022-12-13T11:26:06.467Z,-3.63
2022-12-13T11:28:57.640Z,-3.72
2022-12-13T11:31:30.380Z,-3.90
2022-12-13T11:34:34.430Z,-3.72
2022-12-13T11:37:13.094Z,-3.62
2022-12-13T11:40:01.184Z,-3.67
2022-12-13T11:42:35.029Z,-3.60
2022-12-13T11:45:22.887Z,-3.62
2022-12-13T11:47:58.320Z,-3.62
2022-12-13T11:50:37.045Z,-3.34
2022-12-13T11:53:25.097Z,-3.44
2022-12-13T11:56:10.174Z,-3.27
2022-12-13T11:59:02.440Z,-3.32
2022-12-13T12:01:56.983Z,-3.38
2022-12-13T12:04:39.583Z,-3.37
2022-12-13T12:07:36.725Z,-3.44
2022-12-13T12:10:21.379Z,-3.47
2022-12-13T12:12:55.544Z,-3.39
2022-12-13T12:15:27.601Z,-3.34
2022-12-13T12:17:55.900Z,-3.28
2022-12-13T12:20:33.893Z,-3.26
2022-12-13T12:23:24.927Z,-3.17
2022-12-13T12:26:06.680Z,-3.08
2022-12-13T12:28:45.289Z,-3.01
2022-12-13T12:31:23.975Z,-2.87
2022-12-13T12:34:16.795Z,-3.01
2022-12-13T12:37:17.803Z,-2.80
2022-12-13T12:39:50.702Z,-2.93
2022-12-13T12:42:17.124Z,-2.92
2022-12-13T12:44:50.448Z,-2.85
2022-12-13T12:48:48.992Z,-2.73
2022-12-13T12:50:56.278Z,-2.63
2022-12-13T12:53:32.099Z,-2.78
2022-12-13T12:56:25.329Z,-2.69
2022-12-13T12:59:12.501Z,-2.91
2022-12-13T13:01:49.164Z,-2.81
2022-12-13T13:04:24.333Z,-2.78
2022-12-13T13:07:23.391Z,-2.90
2022-12-13T13:09:55.098Z,-2.97
2022-12-13T13:12:29.190Z,-2.97
2022-12-13T13:14:57.240Z,-2.83
2022-12-13T13:17:23.668Z,-2.87
2022-12-13T13:20:07.829Z,-2.73
2022-12-13T13:22:44.332Z,-2.80
2022-12-13T13:25:31.765Z,-2.61
2022-12-13T13:28:05.520Z,-2.72
2022-12-13T13:30:32.907Z,-2.65
2022-12-13T13:33:02.186Z,-2.78
2022-12-13T13:35:28.795Z,-2.73
2022-12-13T13:37:55.754Z,-2.80
2022-12-13T13:40:30.989Z,-2.83
2022-12-13T13:43:10.116Z,-2.70
2022-12-13T13:45:54.545Z,-2.63
2022-12-13T13:48:21.002Z,-2.83
2022-12-13T13:51:10.524Z,-2.69
2022-12-13T13:54:14.609Z,-2.87
2022-12-13T13:57:05.992Z,-2.81
2022-12-13T13:59:58.986Z,-2.79
2022-12-13T14:03:09.043Z,-2.94
2022-12-13T14:05:48.948Z,-2.92
2022-12-13T14:08:32.567Z,-2.76
2022-12-13T14:11:27.024Z,-2.85
2022-12-13T14:14:21.635Z,-2.91
2022-12-13T14:16:49.009Z,-2.82
2022-12-13T14:19:37.924Z,-2.94
2022-12-13T14:22:27.588Z,-2.96
2022-12-13T14:24:54.010Z,-2.95
2022-12-13T14:27:39.618Z,-3.12
2022-12-13T14:30:27.053Z,-3.00
2022-12-13T14:32:58.268Z,-3.08
2022-12-13T14:35:30.504Z,-3.05
2022-12-13T14:38:04.623Z,-3.04
2022-12-13T14:40:47.249Z,-3.18
2022-12-13T14:43:27.650Z,-3.06
2022-12-13T14:46:03.928Z,-3.05
2022-12-13T14:48:43.757Z,-3.05
2022-12-13T14:51:46.933Z,-3.28
2022-12-13T14:54:25.846Z,-3.45
2022-12-13T14:57:04.887Z,-3.32
2022-12-13T14:59:33.411Z,-3.38
2022-12-13T15:02:05.210Z,-3.22
2022-12-13T15:04:34.882Z,-3.43
2022-12-13T15:07:13.577Z,-3.60
2022-12-13T15:09:42.949Z,-3.52
2022-12-13T15:12:25.495Z,-3.57
2022-12-13T15:15:36.429Z,-3.58
2022-12-13T15:18:24.763Z,-3.62
2022-12-13T15:20:53.717Z,-3.59
2022-12-13T15:23:29.813Z,-3.46
2022-12-13T15:26:00.885Z,-3.55
2022-12-13T15:28:31.611Z,-3.58
2022-12-13T15:31:01.473Z,-3.56
2022-12-13T15:33:35.227Z,-3.52
2022-12-13T15:36:17.017Z,-3.44
2022-12-13T15:39:01.023Z,-3.57
2022-12-13T15:41:34.676Z,-3.43
2022-12-13T15:44:06.007Z,-3.62
2022-12-13T15:46:37.934Z,-3.56
2022-12-13T15:49:06.568Z,-3.75
2022-12-13T15:51:33.112Z,-3.69
2022-12-13T15:54:23.402Z,-3.76
2022-12-13T15:57:29.298Z,-3.76
2022-12-13T16:00:29.243Z,-3.86
2022-12-13T16:03:01.670Z,-3.92
2022-12-13T16:05:38.471Z,-3.83
2022-12-13T16:08:13.518Z,-3.94
2022-12-13T16:10:47.329Z,-3.96
2022-12-13T16:13:26.207Z,-3.88
2022-12-13T16:16:03.826Z,-3.95
2022-12-13T16:18:46.038Z,-3.98
2022-12-13T16:21:12.639Z,-4.03
2022-12-13T16:23:39.121Z,-3.93
2022-12-13T16:26:08.956Z,-4.16
2022-12-13T16:28:36.007Z,-4.16
2022-12-13T16:31:14.057Z,-4.01
2022-12-13T16:33:43.704Z,-4.03
2022-12-13T16:36:13.013Z,-4.00
2022-12-13T16:38:39.909Z,-3.98
2022-12-13T16:41:08.961Z,-4.07
2022-12-13T16:43:50.291Z,-4.11
2022-12-13T16:47:12.024Z,-4.01
2022-12-13T16:49:17.610Z,-4.14
2022-12-13T16:51:48.268Z,-3.88
2022-12-13T16:54:18.299Z,-4.01
2022-12-13T16:56:45.039Z,-3.85
2022-12-13T16:59:19.203Z,-4.02
2022-12-13T17:01:46.636Z,-3.95
2022-12-13T17:04:20.906Z,-4.04
2022-12-13T17:06:48.809Z,-3.69
2022-12-13T17:09:15.636Z,-3.85
2022-12-13T17:11:44.536Z,-3.79
2022-12-13T17:14:11.092Z,-3.90
2022-12-13T17:16:37.793Z,-3.93
2022-12-13T17:19:04.289Z,-3.88
2022-12-13T17:21:30.827Z,-3.93
2022-12-13T17:23:59.441Z,-3.92
2022-12-13T17:26:27.527Z,-3.89
2022-12-13T17:28:54.306Z,-3.92
2022-12-13T17:31:21.203Z,-3.88
2022-12-13T17:33:47.824Z,-3.86
2022-12-13T17:36:18.094Z,-3.99
2022-12-13T17:38:46.605Z,-3.95
2022-12-13T17:41:16.905Z,-3.92
2022-12-13T17:43:45.969Z,-4.03
2022-12-13T17:46:15.295Z,-4.16
2022-12-13T17:48:42.742Z,-4.11
2022-12-13T17:51:10.879Z,-3.90
2022-12-13T17:53:39.629Z,-3.96
2022-12-13T17:56:12.361Z,-3.92
2022-12-13T17:58:40.147Z,-3.86
2022-12-13T18:01:19.176Z,-3.78
2022-12-13T18:03:47.815Z,-3.80
2022-12-13T18:06:15.172Z,-3.87
2022-12-13T18:08:45.582Z,-3.90
2022-12-13T18:14:05.214Z,-3.78
2022-12-13T18:16:38.482Z,-3.81
2022-12-13T18:19:10.175Z,-3.76
2022-12-13T18:21:37.550Z,-3.97
2022-12-13T18:24:05.645Z,-3.90
2022-12-13T18:26:32.225Z,-3.93
2022-12-13T18:28:58.838Z,-3.88
2022-12-13T18:31:25.785Z,-3.84
2022-12-13T18:33:54.155Z,-3.97
2022-12-13T18:36:23.209Z,-4.03
2022-12-13T18:38:52.032Z,-3.95
2022-12-13T18:41:24.212Z,-3.93
2022-12-13T18:44:05.215Z,-4.04
2022-12-13T18:46:35.183Z,-4.05
2022-12-13T18:49:02.360Z,-4.00
2022-12-13T18:51:29.231Z,-4.06
2022-12-13T18:53:56.310Z,-4.02
2022-12-13T18:56:23.638Z,-4.02
2022-12-13T18:58:51.193Z,-4.08
2022-12-13T19:01:19.092Z,-4.18
2022-12-13T19:03:47.885Z,-4.10
2022-12-13T19:06:23.650Z,-4.08
2022-12-13T19:08:52.972Z,-4.07
2022-12-13T19:11:22.674Z,-4.06
2022-12-13T19:13:49.301Z,-4.07
2022-12-13T19:16:19.251Z,-3.93
2022-12-13T19:18:46.056Z,-3.94
2022-12-13T19:21:19.385Z,-4.01
2022-12-13T19:23:55.057Z,-4.02
2022-12-13T19:26:24.157Z,-4.02
2022-12-13T19:28:51.138Z,-3.89
2022-12-13T19:31:17.710Z,-3.82
2022-12-13T19:33:44.299Z,-3.85
2022-12-13T19:36:11.470Z,-3.82
2022-12-13T19:38:39.175Z,-3.88
2022-12-13T19:41:10.699Z,-3.92
2022-12-13T19:43:37.424Z,-3.90
2022-12-13T19:46:04.119Z,-3.96
2022-12-13T19:48:30.821Z,-3.98
2022-12-13T19:51:01.916Z,-3.93
2022-12-13T19:53:31.299Z,-3.98
2022-12-13T19:55:58.566Z,-3.81
2022-12-13T19:58:26.516Z,-3.94
2022-12-13T20:01:02.977Z,-3.92
2022-12-13T20:03:37.292Z,-3.93
2022-12-13T20:06:05.213Z,-4.06
2022-12-13T20:08:34.343Z,-4.00
2022-12-13T20:11:03.832Z,-3.85
2022-12-13T20:13:30.523Z,-3.93
2022-12-13T20:15:57.816Z,-4.00
2022-12-13T20:18:25.191Z,-3.88
2022-12-13T20:21:16.122Z,-3.94
2022-12-13T20:23:49.471Z,-3.92
2022-12-13T20:26:20.146Z,-3.84
2022-12-13T20:28:50.014Z,-3.69
2022-12-13T20:31:19.378Z,-3.68
2022-12-13T20:33:48.029Z,-3.82
2022-12-13T20:36:24.814Z,-3.72
2022-12-13T20:38:56.307Z,-3.74
2022-12-13T20:41:25.412Z,-3.85
2022-12-13T20:43:53.574Z,-3.89
2022-12-13T20:46:20.404Z,-3.83
2022-12-13T20:48:48.041Z,-3.93
2022-12-13T20:51:20.337Z,-3.86
2022-12-13T20:53:48.889Z,-3.93
2022-12-13T20:56:24.625Z,-4.01
2022-12-13T20:58:51.986Z,-3.80
2022-12-13T21:01:30.360Z,-3.72
2022-12-13T21:04:00.176Z,-3.87
2022-12-13T21:06:28.447Z,-3.83
2022-12-13T21:08:55.538Z,-3.84
2022-12-13T21:11:24.517Z,-3.85
2022-12-13T21:13:55.140Z,-3.90
2022-12-13T21:16:23.023Z,-4.09
2022-12-13T21:18:49.686Z,-4.08
2022-12-13T21:21:16.226Z,-4.08
2022-12-13T21:23:42.725Z,-4.20
2022-12-13T21:26:11.727Z,-4.09
2022-12-13T21:28:38.218Z,-4.01
2022-12-13T21:31:09.600Z,-3.92
2022-12-13T21:33:39.451Z,-3.98
2022-12-13T21:36:14.511Z,-4.06
2022-12-13T21:38:41.921Z,-4.05
2022-12-13T21:41:11.644Z,-4.04
2022-12-13T21:43:39.044Z,-4.01
2022-12-13T21:46:15.490Z,-3.97
2022-12-13T21:48:43.211Z,-3.96
2022-12-13T21:51:13.050Z,-4.11
2022-12-13T21:53:39.790Z,-4.07
2022-12-13T21:56:26.863Z,-4.04
2022-12-13T21:59:12.186Z,-4.14
2022-12-13T22:02:07.151Z,-4.10
2022-12-13T22:04:36.316Z,-4.19
2022-12-13T22:07:05.356Z,-4.11
2022-12-13T22:09:31.862Z,-4.23
2022-12-13T22:12:01.019Z,-4.43
2022-12-13T22:14:27.944Z,-4.25
2022-12-13T22:16:54.495Z,-4.39
2022-12-13T22:19:20.968Z,-4.34
2022-12-13T22:21:47.540Z,-4.11
2022-12-13T22:24:14.038Z,-4.27
2022-12-13T22:26:41.008Z,-4.33
2022-12-13T22:29:11.908Z,-4.19
2022-12-13T22:31:38.979Z,-4.28
2022-12-13T22:34:05.530Z,-4.39
2022-12-13T22:36:32.077Z,-4.43
2022-12-13T22:38:58.843Z,-4.46
2022-12-13T22:41:25.334Z,-4.52
2022-12-13T22:43:51.778Z,-4.57
2022-12-13T22:46:22.429Z,-4.65
2022-12-13T22:48:51.674Z,-4.60
2022-12-13T22:51:19.270Z,-4.73
2022-12-13T22:53:47.723Z,-4.69
2022-12-13T22:56:19.883Z,-4.66
2022-12-13T22:58:46.926Z,-4.70
2022-12-13T23:01:22.776Z,-4.70
2022-12-13T23:03:49.482Z,-4.66
2022-12-13T23:06:22.214Z,-4.67
2022-12-13T23:08:54.862Z,-4.84
2022-12-13T23:11:40.733Z,-4.97
2022-12-13T23:14:09.211Z,-4.87
2022-12-13T23:16:36.092Z,-4.96
2022-12-13T23:19:39.726Z,-4.96
2022-12-13T23:21:54.303Z,-4.79
2022-12-13T23:24:20.798Z,-4.88
2022-12-13T23:26:47.320Z,-4.88
2022-12-13T23:29:13.931Z,-5.01
2022-12-13T23:31:42.715Z,-4.83
2022-12-13T23:34:15.719Z,-4.90
2022-12-13T23:36:42.489Z,-4.90
2022-12-13T23:39:11.066Z,-4.92
2022-12-13T23:41:37.615Z,-4.81
2022-12-13T23:44:04.392Z,-4.75
2022-12-13T23:46:33.403Z,-4.67
2022-12-13T23:49:01.182Z,-4.71
2022-12-13T23:51:28.492Z,-4.67
2022-12-13T23:53:55.574Z,-4.68
2022-12-13T23:56:23.548Z,-4.56
2022-12-13T23:58:50.823Z,-4.54
